createdAt,value
2022-09-20T00:01:35.878Z,101203.97
2022-09-20T00:04:06.832Z,101213.63
2022-09-20T00:06:36.637Z,101213.63
2022-09-20T00:09:06.235Z,101217.13
2022-09-20T00:11:37.851Z,101213.63
2022-09-20T00:14:08.640Z,101211.03
2022-09-20T00:16:40.533Z,101210.16
2022-09-20T00:19:16.646Z,101211.06
2022-09-20T00:21:45.195Z,101211.13
2022-09-20T00:24:13.500Z,101213.75
2022-09-20T00:26:43.163Z,101219.03
2022-09-20T00:29:12.696Z,101227.81
2022-09-20T00:31:42.775Z,101227.81
2022-09-20T00:34:29.677Z,101220.81
2022-09-20T00:36:57.950Z,101218.16
2022-09-20T00:39:26.592Z,101217.31
2022-09-20T00:41:56.325Z,101224.28
2022-09-20T00:44:59.452Z,101217.31
2022-09-20T00:47:38.639Z,101224.28
2022-09-20T00:50:25.254Z,101230.41
2022-09-20T00:52:59.076Z,101228.63
2022-09-20T00:55:28.829Z,101220.75
2022-09-20T00:57:59.627Z,101227.75
2022-09-20T01:00:28.954Z,101223.34
2022-09-20T01:03:02.470Z,101226.84
2022-09-20T01:05:31.246Z,101226.00
2022-09-20T01:07:59.602Z,101222.50
2022-09-20T01:10:28.359Z,101221.63
2022-09-20T01:12:58.235Z,101222.50
2022-09-20T01:15:29.573Z,101219.03
2022-09-20T01:18:01.151Z,101216.38
2022-09-20T01:20:32.536Z,101217.31
2022-09-20T01:23:28.677Z,101212.09
2022-09-20T01:26:42.753Z,101224.41
2022-09-20T01:29:30.764Z,101222.69
2022-09-20T01:32:06.230Z,101223.56
2022-09-20T01:34:37.614Z,101222.69
2022-09-20T01:37:14.959Z,101227.94
2022-09-20T01:39:55.137Z,101226.19
2022-09-20T01:42:31.238Z,101226.19
2022-09-20T01:45:07.102Z,101215.75
2022-09-20T01:47:44.815Z,101219.28
2022-09-20T01:50:26.904Z,101220.19
2022-09-20T01:53:28.520Z,101212.38
2022-09-20T01:56:19.492Z,101229.09
2022-09-20T01:59:25.035Z,101223.94
2022-09-20T02:02:11.247Z,101227.50
2022-09-20T02:05:35.204Z,101224.97
2022-09-20T02:08:35.488Z,101220.63
2022-09-20T02:11:14.851Z,101226.88
2022-09-20T02:14:06.348Z,101223.47
2022-09-20T02:16:52.077Z,101227.91
2022-09-20T02:19:51.369Z,101225.41
2022-09-20T02:22:50.978Z,101229.00
2022-09-20T02:25:46.074Z,101230.06
2022-09-20T02:28:30.403Z,101222.34
2022-09-20T02:31:15.206Z,101221.59
2022-09-20T02:34:10.204Z,101226.91
2022-09-20T02:36:54.030Z,101222.66
2022-09-20T02:39:27.815Z,101222.78
2022-09-20T02:42:10.152Z,101221.94
2022-09-20T02:45:03.888Z,101222.94
2022-09-20T02:47:38.087Z,101229.16
2022-09-20T02:50:29.778Z,101223.13
2022-09-20T02:53:15.739Z,101229.31
2022-09-20T02:55:59.805Z,101221.56
2022-09-20T02:58:47.987Z,101222.50
2022-09-20T03:01:33.669Z,101230.47
2022-09-20T03:04:24.538Z,101237.53
2022-09-20T03:07:02.634Z,101227.09
2022-09-20T03:09:44.269Z,101234.16
2022-09-20T03:12:27.250Z,101231.56
2022-09-20T03:15:17.238Z,101228.16
2022-09-20T03:17:59.192Z,101244.84
2022-09-20T03:20:38.386Z,101235.28
2022-09-20T03:23:23.882Z,101244.06
2022-09-20T03:25:59.381Z,101246.72
2022-09-20T03:28:58.251Z,101250.28
2022-09-20T03:31:42.960Z,101266.03
2022-09-20T03:34:31.156Z,101261.69
2022-09-20T03:37:24.016Z,101267.88
2022-09-20T03:40:21.017Z,101266.19
2022-09-20T03:42:54.013Z,101268.84
2022-09-20T03:45:41.506Z,101254.03
2022-09-20T03:48:52.816Z,101258.50
2022-09-20T03:51:33.793Z,101255.91
2022-09-20T03:54:48.671Z,101249.00
2022-09-20T03:57:36.106Z,101253.41
2022-09-20T04:00:23.956Z,101258.72
2022-09-20T04:03:11.579Z,101254.41
2022-09-20T04:05:56.678Z,101254.44
2022-09-20T04:08:49.130Z,101259.75
2022-09-20T04:11:28.946Z,101259.81
2022-09-20T04:14:10.653Z,101270.31
2022-09-20T04:16:49.380Z,101266.84
2022-09-20T04:19:32.188Z,101266.00
2022-09-20T04:22:03.160Z,101265.94
2022-09-20T04:24:41.815Z,101277.25
2022-09-20T04:27:17.843Z,101266.75
2022-09-20T04:29:54.104Z,101275.44
2022-09-20T04:32:32.241Z,101275.41
2022-09-20T04:35:36.884Z,101274.50
2022-09-20T04:38:10.831Z,101271.00
2022-09-20T04:41:01.922Z,101278.84
2022-09-20T04:44:01.884Z,101269.31
2022-09-20T04:47:19.495Z,101265.84
2022-09-20T04:50:42.787Z,101273.78
2022-09-20T04:53:58.900Z,101279.09
2022-09-20T04:56:48.632Z,101279.94
2022-09-20T04:59:30.956Z,101286.06
2022-09-20T05:02:44.619Z,101291.31
2022-09-20T05:06:03.118Z,101293.03
2022-09-20T05:09:22.817Z,101300.03
2022-09-20T05:12:27.244Z,101299.09
2022-09-20T05:15:43.015Z,101299.97
2022-09-20T05:19:03.077Z,101314.78
2022-09-20T05:21:51.353Z,101308.69
2022-09-20T05:24:38.394Z,101310.41
2022-09-20T05:27:28.479Z,101312.09
2022-09-20T05:30:06.633Z,101304.19
2022-09-20T05:32:46.097Z,101314.63
2022-09-20T05:35:23.876Z,101318.97
2022-09-20T05:38:07.881Z,101307.63
2022-09-20T05:41:04.630Z,101316.31
2022-09-20T05:43:36.170Z,101310.22
2022-09-20T05:46:17.907Z,101317.19
2022-09-20T05:48:57.900Z,101322.44
2022-09-20T05:51:45.782Z,101321.53
2022-09-20T05:55:07.762Z,101334.63
2022-09-20T05:57:56.416Z,101330.25
2022-09-20T06:00:30.987Z,101327.53
2022-09-20T06:03:12.229Z,101344.03
2022-09-20T06:05:54.858Z,101334.34
2022-09-20T06:09:06.467Z,101339.50
2022-09-20T06:12:06.798Z,101342.88
2022-09-20T06:14:46.780Z,101328.72
2022-09-20T06:17:27.140Z,101332.13
2022-09-20T06:20:14.704Z,101332.03
2022-09-20T06:22:46.901Z,101337.19
2022-09-20T06:25:22.852Z,101337.06
2022-09-20T06:27:56.516Z,101345.66
2022-09-20T06:30:28.956Z,101341.13
2022-09-20T06:33:00.219Z,101347.16
2022-09-20T06:35:38.574Z,101346.19
2022-09-20T06:38:47.263Z,101336.50
2022-09-20T06:41:28.353Z,101347.84
2022-09-20T06:43:59.505Z,101354.00
2022-09-20T06:46:29.312Z,101347.81
2022-09-20T06:48:58.392Z,101348.50
2022-09-20T06:51:29.213Z,101346.44
2022-09-20T06:53:58.687Z,101346.97
2022-09-20T06:56:30.476Z,101332.78
2022-09-20T06:59:00.040Z,101343.19
2022-09-20T07:01:30.659Z,101347.50
2022-09-20T07:03:59.689Z,101345.75
2022-09-20T07:06:29.221Z,101349.84
2022-09-20T07:08:57.449Z,101349.41
2022-09-20T07:11:25.923Z,101346.31
2022-09-20T07:13:56.020Z,101344.22
2022-09-20T07:16:26.338Z,101343.97
2022-09-20T07:18:56.669Z,101354.31
2022-09-20T07:21:25.355Z,101354.94
2022-09-20T07:23:54.003Z,101353.81
2022-09-20T07:26:25.471Z,101349.06
2022-09-20T07:28:54.041Z,101353.31
2022-09-20T07:31:27.327Z,101358.34
2022-09-20T07:33:56.227Z,101357.03
2022-09-20T07:36:24.852Z,101363.59
2022-09-20T07:38:54.424Z,101364.13
2022-09-20T07:41:23.665Z,101365.56
2022-09-20T07:43:52.252Z,101368.81
2022-09-20T07:46:23.397Z,101372.97
2022-09-20T07:48:54.352Z,101376.00
2022-09-20T07:51:22.875Z,101378.13
2022-09-20T07:53:55.400Z,101368.91
2022-09-20T07:56:23.696Z,101377.00
2022-09-20T07:58:52.848Z,101369.03
2022-09-20T08:01:22.482Z,101373.63
2022-09-20T08:03:52.133Z,101367.28
2022-09-20T08:06:21.365Z,101367.88
2022-09-20T08:08:51.708Z,101362.72
2022-09-20T08:11:27.715Z,101356.56
2022-09-20T08:14:13.116Z,101364.53
2022-09-20T08:16:43.084Z,101365.19
2022-09-20T08:19:17.712Z,101363.16
2022-09-20T08:21:46.378Z,101361.28
2022-09-20T08:24:16.315Z,101369.22
2022-09-20T08:26:45.460Z,101368.63
2022-09-20T08:29:15.181Z,101366.91
2022-09-20T08:31:43.613Z,101365.72
2022-09-20T08:34:15.137Z,101372.50
2022-09-20T08:36:46.765Z,101370.25
2022-09-20T08:42:16.060Z,101380.66
2022-09-20T08:45:00.429Z,101378.91
2022-09-20T08:47:32.206Z,101376.97
2022-09-20T08:50:17.593Z,101390.47
2022-09-20T08:52:48.475Z,101385.28
2022-09-20T08:55:20.106Z,101390.47
2022-09-20T08:57:51.098Z,101387.63
2022-09-20T09:00:22.556Z,101392.47
2022-09-20T09:02:53.234Z,101383.06
2022-09-20T09:05:35.696Z,101385.03
2022-09-20T09:08:10.314Z,101387.72
2022-09-20T09:10:43.069Z,101381.63
2022-09-20T09:13:22.996Z,101372.06
2022-09-20T09:15:58.207Z,101380.06
2022-09-20T09:18:35.028Z,101379.97
2022-09-20T09:21:07.688Z,101377.72
2022-09-20T09:23:43.336Z,101370.19
2022-09-20T09:26:21.107Z,101382.91
2022-09-20T09:29:10.628Z,101384.00
2022-09-20T09:31:39.775Z,101378.88
2022-09-20T09:34:26.275Z,101374.53
2022-09-20T09:36:56.624Z,101377.78
2022-09-20T09:39:28.240Z,101371.91
2022-09-20T09:42:00.798Z,101374.78
2022-09-20T09:44:32.666Z,101377.44
2022-09-20T09:47:01.973Z,101368.41
2022-09-20T09:49:34.078Z,101370.63
2022-09-20T09:52:14.305Z,101364.03
2022-09-20T09:54:48.823Z,101360.69
2022-09-20T09:57:34.435Z,101346.28
2022-09-20T10:00:18.132Z,101342.13
2022-09-20T10:03:22.137Z,101340.00
2022-09-20T10:06:08.059Z,101338.72
2022-09-20T10:08:51.046Z,101346.91
2022-09-20T10:11:33.662Z,101351.22
2022-09-20T10:14:18.261Z,101351.63
2022-09-20T10:17:06.189Z,101357.75
2022-09-20T10:19:57.268Z,101365.00
2022-09-20T10:22:38.127Z,101362.00
2022-09-20T10:25:21.245Z,101369.63
2022-09-20T10:28:07.784Z,101384.09
2022-09-20T10:30:56.901Z,101387.19
2022-09-20T10:33:37.434Z,101395.88
2022-09-20T10:36:18.059Z,101395.66
2022-09-20T10:38:53.116Z,101402.56
2022-09-20T10:42:00.604Z,101395.09
2022-09-20T10:45:06.845Z,101394.47
2022-09-20T10:47:41.699Z,101396.50
2022-09-20T10:50:19.610Z,101392.22
2022-09-20T10:53:04.556Z,101395.88
2022-09-20T10:55:48.654Z,101387.44
2022-09-20T10:59:01.754Z,101384.94
2022-09-20T11:01:39.753Z,101383.03
2022-09-20T11:04:33.899Z,101379.41
2022-09-20T11:07:12.599Z,101388.22
2022-09-20T11:09:48.292Z,101389.03
2022-09-20T11:12:25.983Z,101394.94
2022-09-20T11:15:00.748Z,101393.66
2022-09-20T11:17:35.684Z,101388.75
2022-09-20T11:20:16.292Z,101377.41
2022-09-20T11:22:49.316Z,101378.19
2022-09-20T11:25:24.923Z,101377.38
2022-09-20T11:28:04.048Z,101373.69
2022-09-20T11:30:37.457Z,101378.66
2022-09-20T11:33:15.159Z,101377.72
2022-09-20T11:35:49.208Z,101372.16
2022-09-20T11:38:24.891Z,101380.84
2022-09-20T11:41:00.335Z,101373.09
2022-09-20T11:43:30.275Z,101372.47
2022-09-20T11:46:07.755Z,101360.88
2022-09-20T11:48:43.681Z,101370.22
2022-09-20T11:51:37.172Z,101365.31
2022-09-20T11:54:49.890Z,101369.63
2022-09-20T11:57:18.319Z,101388.31
2022-09-20T11:59:54.260Z,101388.00
2022-09-20T12:02:32.765Z,101389.41
2022-09-20T12:05:02.224Z,101390.09
2022-09-20T12:07:36.130Z,101374.72
2022-09-20T12:10:09.096Z,101371.06
2022-09-20T12:12:42.436Z,101380.25
2022-09-20T12:15:26.705Z,101377.28
2022-09-20T12:18:33.270Z,101387.63
2022-09-20T12:21:15.401Z,101382.63
2022-09-20T12:24:18.967Z,101368.00
2022-09-20T12:26:53.494Z,101372.75
2022-09-20T12:30:08.369Z,101368.69
2022-09-20T12:33:01.069Z,101372.94
2022-09-20T12:36:18.334Z,101365.38
2022-09-20T12:39:00.197Z,101366.22
2022-09-20T12:41:29.385Z,101362.56
2022-09-20T12:44:06.504Z,101369.38
2022-09-20T12:46:43.707Z,101369.88
2022-09-20T12:49:49.028Z,101366.22
2022-09-20T12:52:50.520Z,101378.66
2022-09-20T12:55:55.335Z,101373.88
2022-09-20T12:58:29.680Z,101366.22
2022-09-20T13:01:33.426Z,101375.84
2022-09-20T13:04:53.832Z,101374.34
2022-09-20T13:07:44.093Z,101363.31
2022-09-20T13:10:30.464Z,101364.38
2022-09-20T13:13:13.707Z,101358.94
2022-09-20T13:15:48.698Z,101358.03
2022-09-20T13:18:18.785Z,101365.81
2022-09-20T13:20:47.292Z,101366.56
2022-09-20T13:23:25.015Z,101367.25
2022-09-20T13:25:54.382Z,101366.94
2022-09-20T13:28:33.428Z,101363.91
2022-09-20T13:31:35.657Z,101360.63
2022-09-20T13:34:22.326Z,101353.81
2022-09-20T13:36:56.327Z,101357.84
2022-09-20T13:39:37.219Z,101358.53
2022-09-20T13:42:16.247Z,101352.53
2022-09-20T13:44:44.913Z,101355.38
2022-09-20T13:47:25.191Z,101359.91
2022-09-20T13:49:54.050Z,101355.28
2022-09-20T13:52:26.543Z,101346.91
2022-09-20T13:54:56.353Z,101348.66
2022-09-20T13:57:28.956Z,101345.78
2022-09-20T13:59:58.163Z,101348.63
2022-09-20T14:02:31.263Z,101336.41
2022-09-20T14:05:02.559Z,101342.31
2022-09-20T14:07:31.608Z,101336.72
2022-09-20T14:10:01.638Z,101333.69
2022-09-20T14:12:30.455Z,101332.06
2022-09-20T14:14:59.368Z,101330.53
2022-09-20T14:17:31.943Z,101321.84
2022-09-20T14:20:00.538Z,101326.50
2022-09-20T14:22:30.191Z,101326.34
2022-09-20T14:25:03.200Z,101333.84
2022-09-20T14:27:32.612Z,101324.88
2022-09-20T14:30:02.286Z,101326.22
2022-09-20T14:32:45.139Z,101326.81
2022-09-20T14:35:19.168Z,101330.66
2022-09-20T14:37:51.452Z,101334.22
2022-09-20T14:40:29.027Z,101338.59
2022-09-20T14:42:59.630Z,101331.50
2022-09-20T14:45:32.556Z,101326.72
2022-09-20T14:48:09.617Z,101336.25
2022-09-20T14:50:42.065Z,101326.19
2022-09-20T14:53:27.652Z,101330.06
2022-09-20T14:56:10.202Z,101328.72
2022-09-20T14:59:20.187Z,101322.13
2022-09-20T15:02:04.970Z,101321.59
2022-09-20T15:04:35.370Z,101316.63
2022-09-20T15:07:06.485Z,101322.41
2022-09-20T15:09:35.780Z,101325.53
2022-09-20T15:12:08.297Z,101322.50
2022-09-20T15:14:38.068Z,101325.53
2022-09-20T15:17:07.272Z,101320.69
2022-09-20T15:19:35.487Z,101320.25
2022-09-20T15:22:03.922Z,101323.16
2022-09-20T15:24:32.430Z,101322.47
2022-09-20T15:27:00.903Z,101319.16
2022-09-20T15:29:30.893Z,101323.78
2022-09-20T15:31:59.629Z,101317.88
2022-09-20T15:34:28.081Z,101318.00
2022-09-20T15:36:57.291Z,101318.13
2022-09-20T15:39:25.911Z,101311.22
2022-09-20T15:41:54.948Z,101324.63
2022-09-20T15:44:23.336Z,101315.94
2022-09-20T15:46:53.227Z,101313.41
2022-09-20T15:49:22.040Z,101318.00
2022-09-20T15:51:50.469Z,101308.59
2022-09-20T15:54:19.349Z,101311.63
2022-09-20T15:56:47.621Z,101318.13
2022-09-20T15:59:16.370Z,101319.31
2022-09-20T16:01:48.030Z,101316.97
2022-09-20T16:04:20.375Z,101313.69
2022-09-20T16:06:50.747Z,101314.78
2022-09-20T16:09:19.575Z,101322.81
2022-09-20T16:11:48.615Z,101321.28
2022-09-20T16:14:17.362Z,101329.50
2022-09-20T16:16:45.962Z,101330.56
2022-09-20T16:19:20.768Z,101324.63
2022-09-20T16:21:57.666Z,101331.88
2022-09-20T16:24:28.775Z,101334.72
2022-09-20T16:26:57.136Z,101334.94
2022-09-20T16:29:25.900Z,101343.91
2022-09-20T16:31:55.811Z,101346.63
2022-09-20T16:34:29.603Z,101337.09
2022-09-20T16:37:01.312Z,101341.66
2022-09-20T16:39:31.390Z,101346.13
2022-09-20T16:42:03.505Z,101351.50
2022-09-20T16:44:32.490Z,101351.59
2022-09-20T16:47:01.188Z,101354.31
2022-09-20T16:49:29.861Z,101343.88
2022-09-20T16:51:59.392Z,101351.91
2022-09-20T16:54:31.728Z,101356.44
2022-09-20T16:57:00.661Z,101359.25
2022-09-20T16:59:28.949Z,101362.03
2022-09-20T17:01:57.819Z,101360.44
2022-09-20T17:04:26.175Z,101358.91
2022-09-20T17:06:54.511Z,101358.28
2022-09-20T17:09:24.220Z,101362.03
2022-09-20T17:11:53.884Z,101359.72
2022-09-20T17:14:22.446Z,101371.50
2022-09-20T17:16:51.218Z,101373.53
2022-09-20T17:19:21.455Z,101371.25
2022-09-20T17:21:51.699Z,101377.66
2022-09-20T17:24:21.567Z,101376.22
2022-09-20T17:26:53.456Z,101376.53
2022-09-20T17:29:22.222Z,101385.63
2022-09-20T17:31:55.639Z,101381.34
2022-09-20T17:34:25.633Z,101389.44
2022-09-20T17:36:55.333Z,101384.25
2022-09-20T17:39:24.417Z,101389.59
2022-09-20T17:41:54.259Z,101395.88
2022-09-20T17:44:24.000Z,101391.63
2022-09-20T17:46:53.992Z,101397.88
2022-09-20T17:49:24.175Z,101402.38
2022-09-20T17:51:54.525Z,101399.88
2022-09-20T17:54:24.325Z,101399.94
2022-09-20T17:56:55.700Z,101397.38
2022-09-20T17:59:24.602Z,101399.28
2022-09-20T18:01:54.239Z,101410.75
2022-09-20T18:04:24.352Z,101410.00
2022-09-20T18:06:54.892Z,101408.34
2022-09-20T18:09:27.127Z,101407.56
2022-09-20T18:11:57.592Z,101419.09
2022-09-20T18:14:28.387Z,101417.44
2022-09-20T18:17:00.984Z,101424.56
2022-09-20T18:19:33.021Z,101426.41
2022-09-20T18:22:02.414Z,101424.75
2022-09-20T18:24:31.666Z,101428.31
2022-09-20T18:27:01.576Z,101430.13
2022-09-20T18:29:33.385Z,101435.47
2022-09-20T18:32:01.850Z,101432.91
2022-09-20T18:34:31.995Z,101436.53
2022-09-20T18:37:03.868Z,101441.03
2022-09-20T18:39:34.750Z,101440.28
2022-09-20T18:42:07.960Z,101445.66
2022-09-20T18:44:36.496Z,101451.94
2022-09-20T18:47:05.878Z,101451.19
2022-09-20T18:49:34.367Z,101459.19
2022-09-20T18:52:03.623Z,101459.31
2022-09-20T18:54:32.119Z,101462.88
2022-09-20T18:57:03.111Z,101469.09
2022-09-20T18:59:31.908Z,101473.59
2022-09-20T19:02:19.760Z,101478.91
2022-09-20T19:05:11.895Z,101479.88
2022-09-20T19:07:54.672Z,101479.03
2022-09-20T19:10:38.166Z,101477.38
2022-09-20T19:13:32.356Z,101480.09
2022-09-20T19:16:20.714Z,101491.56
2022-09-20T19:19:08.444Z,101495.13
2022-09-20T19:21:48.320Z,101503.94
2022-09-20T19:24:31.888Z,101503.97
2022-09-20T19:27:00.691Z,101506.59
2022-09-20T19:29:31.412Z,101506.69
2022-09-20T19:32:01.285Z,101506.78
2022-09-20T19:34:32.187Z,101513.03
2022-09-20T19:37:18.381Z,101520.13
2022-09-20T19:40:03.231Z,101517.59
2022-09-20T19:42:47.526Z,101529.03
2022-09-20T19:45:28.950Z,101524.69
2022-09-20T19:48:07.447Z,101520.34
2022-09-20T19:50:45.279Z,101519.47
2022-09-20T19:53:14.817Z,101515.13
2022-09-20T19:55:48.093Z,101518.66
2022-09-20T19:58:17.190Z,101519.56
2022-09-20T20:00:48.291Z,101525.66
2022-09-20T20:03:17.611Z,101533.53
2022-09-20T20:05:56.099Z,101532.69
2022-09-20T20:08:36.963Z,101525.75
2022-09-20T20:11:15.919Z,101533.66
2022-09-20T20:14:04.621Z,101531.06
2022-09-20T20:16:46.775Z,101536.34
2022-09-20T20:19:38.957Z,101535.50
2022-09-20T20:22:19.866Z,101540.78
2022-09-20T20:24:52.496Z,101532.06
2022-09-20T20:27:21.014Z,101531.22
2022-09-20T20:29:49.342Z,101529.50
2022-09-20T20:32:18.894Z,101536.50
2022-09-20T20:34:47.096Z,101533.03
2022-09-20T20:37:15.707Z,101545.34
2022-09-20T20:39:43.880Z,101542.72
2022-09-20T20:42:12.919Z,101544.44
2022-09-20T20:44:41.584Z,101542.72
2022-09-20T20:47:10.042Z,101547.91
2022-09-20T20:49:39.603Z,101553.09
2022-09-20T20:52:08.926Z,101546.94
2022-09-20T20:54:37.394Z,101553.91
2022-09-20T20:57:06.110Z,101555.63
2022-09-20T20:59:34.365Z,101555.63
2022-09-20T21:02:07.652Z,101555.59
2022-09-20T21:04:36.943Z,101552.06
2022-09-20T21:07:06.801Z,101551.16
2022-09-20T21:09:35.059Z,101550.31
2022-09-20T21:12:04.029Z,101552.03
2022-09-20T21:14:33.769Z,101553.75
2022-09-20T21:17:02.409Z,101553.72
2022-09-20T21:19:30.954Z,101559.84
2022-09-20T21:21:59.418Z,101558.03
2022-09-20T21:24:29.047Z,101555.41
2022-09-20T21:26:57.568Z,101566.78
2022-09-20T21:29:25.722Z,101562.44
2022-09-20T21:31:53.891Z,101565.09
2022-09-20T21:34:22.116Z,101566.00
2022-09-20T21:36:50.390Z,101565.13
2022-09-20T21:39:18.540Z,101568.66
2022-09-20T21:41:48.662Z,101562.56
2022-09-20T21:44:17.104Z,101557.34
2022-09-20T21:46:45.280Z,101564.38
2022-09-20T21:49:14.470Z,101567.88
2022-09-20T21:51:43.972Z,101568.78
2022-09-20T21:54:12.559Z,101567.97
2022-09-20T21:56:41.633Z,101569.75
2022-09-20T21:59:11.179Z,101570.72
2022-09-20T22:01:41.264Z,101560.28
2022-09-20T22:04:11.410Z,101569.97
2022-09-20T22:06:42.004Z,101564.78
2022-09-20T22:09:12.594Z,101570.09
2022-09-20T22:11:43.552Z,101563.13
2022-09-20T22:14:14.670Z,101572.78
2022-09-20T22:16:45.455Z,101578.88
2022-09-20T22:19:16.836Z,101572.84
2022-09-20T22:21:47.731Z,101572.00
2022-09-20T22:24:17.087Z,101568.53
2022-09-20T22:26:47.846Z,101569.44
2022-09-20T22:29:18.396Z,101573.84
2022-09-20T22:31:50.268Z,101573.88
2022-09-20T22:34:20.698Z,101568.66
2022-09-20T22:36:49.344Z,101568.66
2022-09-20T22:39:18.053Z,101571.31
2022-09-20T22:41:47.748Z,101572.22
2022-09-20T22:44:17.403Z,101569.66
2022-09-20T22:46:45.882Z,101572.28
2022-09-20T22:49:14.203Z,101574.94
2022-09-20T22:51:42.875Z,101574.91
2022-09-20T22:54:14.175Z,101570.56
2022-09-20T22:56:42.697Z,101579.31
2022-09-20T22:59:12.785Z,101572.34
2022-09-20T23:01:45.831Z,101580.19
2022-09-20T23:04:16.871Z,101575.81
2022-09-20T23:06:47.972Z,101572.31
2022-09-20T23:09:18.667Z,101575.78
2022-09-20T23:11:47.488Z,101576.63
2022-09-20T23:14:18.969Z,101575.78
2022-09-20T23:16:49.499Z,101582.75
2022-09-20T23:19:18.504Z,101574.91
2022-09-20T23:21:46.951Z,101575.81
2022-09-20T23:24:16.462Z,101580.25
2022-09-20T23:26:45.589Z,101567.19
2022-09-20T23:29:16.220Z,101578.56
2022-09-20T23:31:47.142Z,101575.09
2022-09-20T23:34:18.380Z,101579.50
2022-09-20T23:36:47.278Z,101574.31
2022-09-20T23:39:16.324Z,101576.06
2022-09-20T23:41:49.915Z,101576.97
2022-09-20T23:44:19.294Z,101576.09
2022-09-20T23:46:47.809Z,101575.22
2022-09-20T23:49:17.490Z,101586.56
2022-09-20T23:51:45.957Z,101579.59
2022-09-20T23:54:14.613Z,101573.47
2022-09-20T23:56:42.870Z,101577.81
2022-09-20T23:59:11.387Z,101572.59
